Strona główna
METAR-TAF:

METAR-TAF

Lotnisko :

La Seu d’Urgell, Hiszpania

Szerokość geograficzna: 42-20-29N, Długość geograficzna: 001-24-17E, wysokość: 802 m

METAR: brakujący

czas: 23:48 (22:48 UTC)

Prognoza

Raport powstał 14 godziny i 48 minut temu, godzina 08:00 UTC
Prognoza ważna od 10 godzina 09 UTC do 11 godzina 09 UTC
Wiatr 4 kt z kierunków zmiennych
Widzialność 10 km lub więcej
Przerywane chmury na wysokości 2500 ft

TAF: LESU 100800Z 1009/1109 VRB04KT 9999 BKN025 TX16/1014Z TNM02/1106Z

Obserwacja i prognoza pogody dla ponad 4000 lotnisk (raport METAR i TAF).

Dostępne stacje oznaczono żółtymi i czerwonymi punktami na mapie.

Najedź kursorem aby zobaczyć nazwę stacji.

Kliknij aby zobaczyć obserwacje i prognozy pogody.

Aby zmienić mapę: kliknij na zielony przycisk z czarnym krzyżykiem, aby powiększyć; na zielony przycisk z myślnikiem, aby pomniejszyć; na zielone strzałki, aby przejść do map sąsiednich.


METAR-TAF: